createdAt,value
2023-04-27T17:32:11.067Z,100980.50
2023-04-27T17:34:41.056Z,100978.91
2023-04-27T17:37:10.950Z,100971.31
2023-04-27T17:39:39.134Z,100975.38
2023-04-27T17:42:11.844Z,100977.34
2023-04-27T17:44:41.731Z,100980.00
2023-04-27T17:47:10.044Z,100974.63
2023-04-27T17:49:38.063Z,100971.84
2023-04-27T17:52:06.624Z,100975.78
2023-04-27T17:54:34.937Z,100975.59
2023-04-27T17:57:03.532Z,100969.41
2023-04-27T17:59:31.412Z,100975.81
2023-04-27T18:01:59.642Z,100979.38
2023-04-27T18:04:27.948Z,100974.63
2023-04-27T18:06:57.094Z,100976.94
2023-04-27T18:09:26.324Z,100976.66
2023-04-27T18:11:54.678Z,100973.31
2023-04-27T18:14:23.064Z,100974.06
2023-04-27T18:16:50.992Z,100969.00
2023-04-27T18:19:19.287Z,100964.13
2023-04-27T18:21:47.273Z,100968.44
2023-04-27T18:24:15.167Z,100973.91
2023-04-27T18:26:43.258Z,100974.47
2023-04-27T18:29:11.556Z,100976.16
2023-04-27T18:31:39.884Z,100973.25
2023-04-27T18:34:08.110Z,100961.97
2023-04-27T18:36:36.539Z,100970.19
2023-04-27T18:39:05.053Z,100971.81
2023-04-27T18:41:33.460Z,100963.31
2023-04-27T18:44:06.174Z,100969.22
2023-04-27T18:46:34.573Z,100968.59
2023-04-27T18:49:03.308Z,100964.63
2023-04-27T18:51:32.059Z,100976.06
2023-04-27T18:54:00.353Z,100974.25
2023-04-27T18:56:28.616Z,100981.72
2023-04-27T18:58:57.026Z,100973.31
2023-04-27T19:01:30.451Z,100975.41
2023-04-27T19:03:59.536Z,100977.63
2023-04-27T19:06:27.876Z,100975.78
2023-04-27T19:08:56.471Z,68092.72
2023-04-27T19:11:25.446Z,68092.72
2023-04-27T19:13:53.901Z,68092.72
2023-04-27T19:16:24.100Z,68092.72
2023-04-27T19:18:52.265Z,68092.72
2023-04-27T19:21:20.986Z,68092.72
2023-04-27T19:23:49.332Z,68092.72
2023-04-27T19:26:17.797Z,68092.72
2023-04-27T19:28:46.283Z,68092.72
2023-04-27T19:31:14.734Z,68092.72
2023-04-27T19:33:46.690Z,68092.72
2023-04-27T19:36:15.696Z,68092.72
2023-04-27T19:38:43.930Z,68092.72
2023-04-27T19:41:14.343Z,68092.72
2023-04-27T19:43:42.659Z,68092.72
2023-04-27T19:46:11.044Z,68092.72
2023-04-27T19:48:39.280Z,68092.72
2023-04-27T19:51:10.891Z,68092.72
2023-04-27T19:53:39.584Z,68092.72
2023-04-27T19:56:07.988Z,68092.72
2023-04-27T19:58:37.132Z,68092.72
2023-04-27T20:01:06.195Z,68092.72
2023-04-27T20:03:35.666Z,100975.78
2023-04-27T20:06:04.656Z,100981.19
2023-04-27T20:08:34.080Z,100982.69
2023-04-27T20:11:02.328Z,100972.41
2023-04-27T20:13:30.976Z,100970.31
2023-04-27T20:15:59.252Z,100970.97
2023-04-27T20:18:31.531Z,100969.94
2023-04-27T20:21:00.065Z,100972.88
2023-04-27T20:23:28.049Z,100974.56
2023-04-27T20:25:56.340Z,100975.25
2023-04-27T20:28:24.583Z,100964.66
2023-04-27T20:30:52.818Z,100963.59
2023-04-27T20:33:21.381Z,100954.28
2023-04-27T20:38:22.035Z,100951.38
2023-04-27T20:40:52.610Z,100945.97
2023-04-27T20:43:21.186Z,100945.16
2023-04-27T20:45:49.444Z,100951.03
2023-04-27T20:48:17.757Z,100947.75
2023-04-27T20:50:45.755Z,100947.22
2023-04-27T20:53:14.208Z,100945.03
2023-04-27T20:55:42.940Z,100942.88
2023-04-27T20:58:10.904Z,100943.75
2023-04-27T21:00:39.242Z,100943.50
2023-04-27T21:03:08.276Z,100942.19
2023-04-27T21:05:36.699Z,100941.69
2023-04-27T21:08:05.218Z,100936.16
2023-04-27T21:10:35.244Z,100933.13
2023-04-27T21:13:04.052Z,100934.25
2023-04-27T21:15:33.349Z,100936.72
2023-04-27T21:18:01.821Z,100932.53
2023-04-27T21:20:30.580Z,100923.16
2023-04-27T21:22:59.007Z,100929.19
2023-04-27T21:25:27.551Z,100929.19
2023-04-27T21:27:55.989Z,100921.44
2023-04-27T21:30:24.369Z,100919.81
2023-04-27T21:32:52.729Z,100916.13
2023-04-27T21:35:21.312Z,100911.47
2023-04-27T21:37:50.425Z,100911.47
2023-04-27T21:40:18.498Z,100902.59
2023-04-27T21:42:46.904Z,100904.75
2023-04-27T21:45:15.297Z,100903.41
2023-04-27T21:47:43.559Z,100892.31
2023-04-27T21:50:11.822Z,100884.25
2023-04-27T21:52:40.041Z,100889.19
2023-04-27T21:55:08.342Z,100878.13
2023-04-27T21:57:36.775Z,100878.66
2023-04-27T22:00:13.189Z,100879.25
2023-04-27T22:02:49.546Z,100867.31
2023-04-27T22:05:20.911Z,100869.25
2023-04-27T22:07:48.747Z,100857.53
2023-04-27T22:10:17.055Z,100861.41
2023-04-27T22:12:46.791Z,100863.88
2023-04-27T22:15:15.499Z,100849.78
2023-04-27T22:17:43.953Z,100856.34
2023-04-27T22:20:12.899Z,100843.13
2023-04-27T22:22:41.604Z,100844.47
2023-04-27T22:25:11.575Z,100847.53
2023-04-27T22:27:44.963Z,100846.44
2023-04-27T22:30:14.603Z,100837.00
2023-04-27T22:32:42.972Z,100830.97
2023-04-27T22:35:24.803Z,100832.06
2023-04-27T22:37:57.301Z,100837.59
2023-04-27T22:40:25.911Z,100826.03
2023-04-27T22:42:55.210Z,100818.34
2023-04-27T22:45:24.126Z,100827.16
2023-04-27T22:47:52.557Z,100822.75
2023-04-27T22:50:20.966Z,100815.28
2023-04-27T22:52:49.974Z,100813.97
2023-04-27T22:55:18.508Z,100812.00
2023-04-27T22:57:46.885Z,100815.06
2023-04-27T23:00:16.152Z,100812.31
2023-04-27T23:02:44.558Z,100806.28
2023-04-27T23:05:13.021Z,100799.94
2023-04-27T23:07:42.846Z,100802.16
2023-04-27T23:10:12.848Z,100795.53
2023-04-27T23:12:41.571Z,100799.69
2023-04-27T23:15:10.641Z,100798.88
2023-04-27T23:17:38.927Z,100796.94
2023-04-27T23:20:24.057Z,100788.94
2023-04-27T23:22:55.570Z,100794.78
2023-04-27T23:25:24.113Z,100795.59
2023-04-27T23:27:53.041Z,100788.13
2023-04-27T23:30:22.313Z,100780.16
2023-04-27T23:32:50.723Z,100768.81
2023-04-27T23:35:19.299Z,100763.28
2023-04-27T23:37:47.991Z,100768.00
2023-04-27T23:40:16.470Z,100764.41
2023-04-27T23:42:48.533Z,100759.72
2023-04-27T23:45:20.786Z,100760.81
2023-04-27T23:47:49.095Z,100760.53
2023-04-27T23:50:17.372Z,100757.75
2023-04-27T23:52:45.688Z,100754.47
2023-04-27T23:55:13.953Z,100748.16
2023-04-27T23:57:42.763Z,100750.63
